Time;durP1;ratioP1;P1;durP2;ratioP2;P2;SDS_P1;SDS_P2;PMS_P1;PMS_P2;Temp;Humidity;BMP_temperature;BMP_pressure;BME280_temperature;BME280_humidity;BME280_pressure;Samples;Min_cycle;Max_cycle;Signal;HPM_P1;HPM_P2
2022/04/08 00:00:00;;;;;;;0.60;0.60;;;7.50;99.90;;;;;;5054176;28;20859;-69
2022/04/08 00:02:49;;;;;;;0.63;0.50;;;7.70;99.90;;;;;;5054608;28;20428;-70
2022/04/08 00:05:38;;;;;;;0.73;0.60;;;7.80;99.90;;;;;;5054653;28;20429;-69
2022/04/08 00:08:24;;;;;;;0.93;0.70;;;7.80;99.90;;;;;;5054754;28;20441;-69
2022/04/08 00:11:12;;;;;;;0.50;0.50;;;7.70;99.90;;;;;;5054868;28;20449;-69
2022/04/08 00:14:00;;;;;;;0.50;0.50;;;7.60;99.90;;;;;;5054337;28;20429;-69
2022/04/08 00:16:47;;;;;;;2.60;1.07;;;7.50;99.90;;;;;;5053972;28;20444;-70
2022/04/08 00:19:34;;;;;;;0.83;0.83;;;7.50;99.90;;;;;;5064278;28;20424;-70
2022/04/08 00:22:23;;;;;;;0.50;0.50;;;7.50;99.90;;;;;;5074784;28;20428;-69
2022/04/08 00:25:11;;;;;;;0.70;0.60;;;7.40;99.90;;;;;;5074194;28;20455;-69
2022/04/08 00:27:58;;;;;;;0.70;0.70;;;7.30;99.90;;;;;;5073287;28;20459;-68
2022/04/08 00:30:45;;;;;;;5.70;1.07;;;7.50;99.90;;;;;;5073906;28;20474;-69
2022/04/08 00:33:32;;;;;;;1.77;1.07;;;7.50;99.90;;;;;;5066989;28;20848;-69
2022/04/08 00:36:19;;;;;;;0.50;0.50;;;7.60;99.90;;;;;;5055506;28;20440;-70
2022/04/08 00:39:11;;;;;;;0.97;0.70;;;7.70;99.90;;;;;;5054304;28;20454;-69
2022/04/08 00:42:00;;;;;;;0.70;0.70;;;7.80;99.90;;;;;;5053592;28;20459;-69
2022/04/08 00:44:47;;;;;;;2.20;0.90;;;7.70;99.90;;;;;;5053762;28;20435;-69
2022/04/08 00:47:36;;;;;;;0.77;0.77;;;7.70;99.90;;;;;;5053742;28;20976;-69
2022/04/08 00:50:23;;;;;;;1.10;0.80;;;7.60;99.90;;;;;;5055183;28;20421;-70
2022/04/08 00:53:10;;;;;;;0.70;0.70;;;7.50;99.90;;;;;;5066522;28;20796;-69
2022/04/08 00:55:59;;;;;;;2.93;1.10;;;7.40;99.90;;;;;;5064407;28;20428;-70
2022/04/08 00:58:46;;;;;;;0.50;0.50;;;7.30;99.90;;;;;;5044853;28;20476;-68
2022/04/08 01:01:33;;;;;;;2.07;1.97;;;7.30;99.90;;;;;;5036633;28;20460;-69
2022/04/08 01:04:22;;;;;;;0.60;0.60;;;7.30;99.90;;;;;;5037744;28;20917;-70
2022/04/08 01:07:09;;;;;;;0.50;0.50;;;7.30;99.90;;;;;;5039792;28;20854;-68
2022/04/08 01:09:56;;;;;;;0.50;0.50;;;7.30;99.90;;;;;;5040447;28;20456;-70
2022/04/08 01:12:44;;;;;;;4.17;0.70;;;7.30;99.90;;;;;;5034778;28;20948;-70
2022/04/08 01:15:31;;;;;;;0.80;0.80;;;7.30;99.90;;;;;;5035832;28;20429;-70
2022/04/08 01:18:18;;;;;;;0.60;0.60;;;7.30;99.90;;;;;;5040144;28;20447;-69
2022/04/08 01:21:05;;;;;;;1.07;1.07;;;7.20;99.90;;;;;;5037776;28;20845;-69
2022/04/08 01:23:56;;;;;;;0.70;0.70;;;7.10;99.90;;;;;;5037301;28;20461;-69
2022/04/08 01:26:44;;;;;;;0.70;0.70;;;7.10;99.90;;;;;;5035542;28;20815;-69
2022/04/08 01:29:31;;;;;;;0.57;0.57;;;7.10;99.90;;;;;;5042519;28;20430;-69
2022/04/08 01:32:18;;;;;;;0.80;0.80;;;7.00;99.90;;;;;;5038963;28;20418;-69
2022/04/08 01:35:06;;;;;;;0.60;0.60;;;7.00;99.90;;;;;;5040678;28;20426;-68
2022/04/08 01:37:52;;;;;;;0.50;0.50;;;6.90;99.90;;;;;;5036970;28;20824;-70
2022/04/08 01:40:39;;;;;;;3.90;2.50;;;6.90;99.90;;;;;;5043538;28;20865;-69
2022/04/08 01:43:28;;;;;;;0.60;0.60;;;6.90;99.90;;;;;;5046666;28;20954;-69
2022/04/08 01:46:15;;;;;;;1.17;0.70;;;6.90;99.90;;;;;;5066093;28;20443;-69
2022/04/08 01:49:02;;;;;;;0.50;0.50;;;6.90;99.90;;;;;;5043724;28;20787;-70
2022/04/08 01:51:48;;;;;;;0.50;0.50;;;6.80;99.90;;;;;;5050503;28;20444;-68
2022/04/08 01:54:35;;;;;;;0.50;0.50;;;6.80;99.90;;;;;;5055944;28;20424;-70
2022/04/08 01:57:23;;;;;;;0.90;0.67;;;6.90;99.90;;;;;;5066071;28;20502;-69
2022/04/08 02:00:13;;;;;;;1.80;0.77;;;7.00;99.90;;;;;;5077210;28;20429;-68
2022/04/08 02:03:00;;;;;;;0.80;0.80;;;7.10;99.90;;;;;;5078007;28;20431;-67
2022/04/08 02:05:47;;;;;;;0.67;0.67;;;7.20;99.90;;;;;;5079054;28;20420;-68
2022/04/08 02:08:34;;;;;;;0.50;0.50;;;7.20;99.90;;;;;;5077423;28;20420;-68
2022/04/08 02:11:21;;;;;;;0.60;0.60;;;7.30;99.90;;;;;;5077001;28;20425;-67
2022/04/08 02:14:08;;;;;;;0.83;0.70;;;7.30;99.90;;;;;;5076493;28;20430;-69
2022/04/08 02:16:56;;;;;;;0.50;0.50;;;7.30;99.90;;;;;;5076772;28;20520;-68
2022/04/08 02:19:43;;;;;;;0.50;0.50;;;7.30;99.90;;;;;;5076680;28;20429;-68
2022/04/08 02:22:30;;;;;;;0.73;0.60;;;7.40;99.90;;;;;;5071405;28;20472;-68
2022/04/08 02:25:18;;;;;;;0.50;0.50;;;7.50;99.90;;;;;;5065496;28;20438;-68
2022/04/08 02:28:05;;;;;;;0.50;0.50;;;7.50;99.90;;;;;;5065229;28;20441;-69
2022/04/08 02:30:54;;;;;;;0.87;0.80;;;7.50;99.90;;;;;;5065541;28;20428;-69
2022/04/08 02:33:42;;;;;;;0.80;0.80;;;7.50;99.90;;;;;;5061158;28;20417;-69
2022/04/08 02:36:29;;;;;;;0.40;0.40;;;7.50;99.90;;;;;;5062241;28;20445;-69
2022/04/08 02:39:16;;;;;;;0.70;0.70;;;7.50;99.90;;;;;;5060978;28;20520;-70
2022/04/08 02:42:04;;;;;;;0.87;0.87;;;7.50;99.90;;;;;;5058846;28;20464;-70
2022/04/08 02:44:51;;;;;;;0.50;0.50;;;7.50;99.90;;;;;;5066615;28;20511;-68
2022/04/08 02:47:42;;;;;;;0.60;0.60;;;7.50;99.90;;;;;;5068516;28;20444;-68
2022/04/08 02:50:30;;;;;;;0.50;0.50;;;7.50;99.90;;;;;;5068415;28;20448;-68
2022/04/08 02:53:17;;;;;;;0.50;0.50;;;7.50;99.90;;;;;;5065707;28;20428;-68
2022/04/08 02:56:04;;;;;;;0.67;0.67;;;7.50;99.90;;;;;;5062787;28;20421;-68
2022/04/08 02:58:51;;;;;;;0.50;0.50;;;7.50;99.90;;;;;;5057898;28;20440;-67
2022/04/08 03:01:39;;;;;;;0.57;0.57;;;7.50;99.90;;;;;;5057499;28;20452;-67
2022/04/08 03:04:26;;;;;;;0.50;0.50;;;7.50;99.90;;;;;;5057232;28;20424;-69
2022/04/08 03:07:14;;;;;;;0.50;0.50;;;7.30;99.90;;;;;;5055690;28;21022;-68
2022/04/08 03:10:01;;;;;;;0.60;0.60;;;7.20;99.90;;;;;;5056820;28;20424;-68
2022/04/08 03:12:48;;;;;;;0.50;0.50;;;7.10;99.90;;;;;;5054679;28;20424;-68
2022/04/08 03:15:35;;;;;;;0.60;0.60;;;7.00;99.90;;;;;;5055359;28;20429;-68
2022/04/08 03:18:22;;;;;;;0.57;0.57;;;6.80;99.90;;;;;;5054960;28;20983;-68
2022/04/08 03:21:09;;;;;;;0.60;0.50;;;6.70;99.90;;;;;;5060427;28;20471;-67
2022/04/08 03:23:57;;;;;;;0.70;0.70;;;6.60;99.90;;;;;;5054861;28;20421;-68
2022/04/08 03:26:46;;;;;;;0.40;0.40;;;6.50;99.90;;;;;;5054379;28;20451;-67
2022/04/08 03:29:33;;;;;;;0.50;0.50;;;6.50;99.90;;;;;;5055913;28;20416;-68
2022/04/08 03:32:20;;;;;;;0.53;0.53;;;6.40;99.90;;;;;;5054049;28;20421;-68
2022/04/08 03:35:08;;;;;;;0.70;0.70;;;6.40;99.90;;;;;;5055164;28;20428;-69
2022/04/08 03:37:55;;;;;;;0.90;0.90;;;6.40;99.90;;;;;;5049597;28;20436;-68
2022/04/08 03:40:43;;;;;;;1.03;0.60;;;6.40;99.90;;;;;;5055238;28;20428;-68
2022/04/08 03:43:30;;;;;;;0.50;0.50;;;6.50;99.90;;;;;;5057163;28;20424;-68
2022/04/08 03:46:17;;;;;;;0.53;0.53;;;6.50;99.90;;;;;;5072296;28;20428;-68
2022/04/08 03:49:10;;;;;;;0.63;0.63;;;6.50;99.90;;;;;;5070376;28;20486;-68
2022/04/08 03:51:58;;;;;;;0.50;0.50;;;6.60;99.90;;;;;;5072415;28;20424;-69
2022/04/08 03:54:45;;;;;;;1.80;0.80;;;6.60;99.90;;;;;;5072120;28;20424;-68
2022/04/08 03:57:33;;;;;;;0.60;0.60;;;6.70;99.90;;;;;;5072880;28;20452;-69
2022/04/08 04:00:20;;;;;;;0.97;0.87;;;6.70;99.90;;;;;;5066853;28;20420;-67
2022/04/08 04:03:07;;;;;;;0.60;0.60;;;6.90;99.90;;;;;;5064768;28;20921;-69
2022/04/08 04:05:54;;;;;;;0.60;0.60;;;6.80;99.90;;;;;;5061862;28;20454;-70
2022/04/08 04:08:40;;;;;;;1.33;0.57;;;6.80;99.90;;;;;;5060084;28;20435;-70
2022/04/08 04:11:27;;;;;;;0.60;0.60;;;6.40;99.90;;;;;;5055587;28;20435;-69
2022/04/08 04:14:16;;;;;;;1.40;0.70;;;6.00;99.90;;;;;;5057800;28;20439;-70
2022/04/08 04:17:03;;;;;;;0.50;0.50;;;5.70;99.90;;;;;;5056400;28;20452;-69
2022/04/08 04:19:50;;;;;;;0.60;0.60;;;5.50;99.90;;;;;;5057480;28;20420;-69
2022/04/08 04:22:37;;;;;;;1.10;0.83;;;5.40;99.90;;;;;;5055191;28;20577;-71
2022/04/08 04:25:24;;;;;;;1.27;0.60;;;5.30;99.90;;;;;;5055411;28;20435;-71
2022/04/08 04:28:11;;;;;;;1.27;0.70;;;5.30;99.90;;;;;;5054225;28;20828;-69
2022/04/08 04:30:59;;;;;;;0.80;0.80;;;5.30;99.90;;;;;;5047707;28;20425;-70
2022/04/08 04:33:46;;;;;;;0.97;0.60;;;5.50;99.90;;;;;;5054966;28;20435;-69
2022/04/08 04:36:33;;;;;;;5.20;1.43;;;5.50;99.90;;;;;;5054753;28;20741;-70
2022/04/08 04:39:20;;;;;;;1.23;0.80;;;5.40;99.90;;;;;;5053822;28;20949;-69
2022/04/08 04:42:07;;;;;;;0.50;0.50;;;5.40;99.90;;;;;;5053264;28;20417;-68
2022/04/08 04:44:54;;;;;;;2.10;0.70;;;5.50;99.90;;;;;;5058596;28;20424;-68
2022/04/08 04:47:43;;;;;;;0.60;0.60;;;5.50;99.90;;;;;;5057138;28;20456;-70
2022/04/08 04:50:30;;;;;;;0.70;0.70;;;5.50;99.90;;;;;;5057449;28;20429;-68
2022/04/08 04:53:16;;;;;;;0.50;0.50;;;5.60;99.90;;;;;;5058590;28;20464;-68
2022/04/08 04:56:04;;;;;;;0.60;0.60;;;5.60;99.90;;;;;;5066282;28;20435;-67
2022/04/08 04:58:51;;;;;;;0.50;0.50;;;5.60;99.90;;;;;;5060710;28;20475;-68
2022/04/08 05:01:38;;;;;;;0.50;0.50;;;5.60;99.90;;;;;;5058003;28;20433;-68
2022/04/08 05:04:26;;;;;;;0.87;0.87;;;5.60;99.90;;;;;;5055454;28;20427;-69
2022/04/08 05:07:14;;;;;;;0.60;0.60;;;5.80;99.90;;;;;;5053573;28;20468;-69
2022/04/08 05:10:03;;;;;;;0.50;0.50;;;5.70;99.90;;;;;;5053896;28;20432;-69
2022/04/08 05:12:50;;;;;;;1.90;1.03;;;5.80;99.90;;;;;;5052132;28;20475;-69
2022/04/08 05:15:38;;;;;;;0.50;0.50;;;5.90;99.90;;;;;;5054919;28;20424;-69
2022/04/08 05:18:25;;;;;;;0.70;0.60;;;5.80;99.90;;;;;;5058976;28;20431;-69
2022/04/08 05:21:13;;;;;;;2.10;0.70;;;5.80;99.90;;;;;;5060325;28;20482;-69
2022/04/08 05:24:00;;;;;;;0.63;0.63;;;5.90;99.90;;;;;;5067302;28;20428;-69
2022/04/08 05:26:47;;;;;;;0.50;0.50;;;5.90;99.90;;;;;;5073885;28;20440;-68
2022/04/08 05:29:34;;;;;;;1.30;0.90;;;5.90;99.90;;;;;;5073435;28;20439;-68
2022/04/08 05:32:21;;;;;;;0.50;0.50;;;5.90;99.90;;;;;;5071859;28;20474;-67
2022/04/08 05:35:09;;;;;;;0.50;0.50;;;6.00;99.90;;;;;;5058913;28;20424;-68
2022/04/08 05:37:57;;;;;;;0.40;0.40;;;6.00;99.90;;;;;;5056061;28;20456;-68
2022/04/08 05:40:44;;;;;;;0.50;0.50;;;6.00;99.90;;;;;;5070222;28;20954;-70
2022/04/08 05:43:31;;;;;;;0.40;0.40;;;6.60;99.90;;;;;;5078463;28;20835;-68
2022/04/08 05:46:18;;;;;;;0.50;0.50;;;6.10;99.90;;;;;;5057345;28;21074;-69
2022/04/08 05:49:05;;;;;;;0.40;0.40;;;6.10;99.90;;;;;;5058918;28;20936;-67
2022/04/08 05:51:52;;;;;;;1.13;0.80;;;6.20;99.90;;;;;;5056775;28;20456;-69
2022/04/08 05:54:40;;;;;;;1.10;0.60;;;6.20;99.90;;;;;;5057187;28;20728;-69
2022/04/08 05:57:27;;;;;;;1.47;0.90;;;6.30;99.90;;;;;;5055971;28;20448;-69
2022/04/08 06:00:17;;;;;;;1.03;0.60;;;6.30;99.90;;;;;;5055817;28;20428;-68
2022/04/08 06:03:04;;;;;;;0.63;0.63;;;6.40;99.90;;;;;;5037801;28;20417;-69
2022/04/08 06:05:51;;;;;;;0.60;0.60;;;6.50;99.90;;;;;;5050557;28;20428;-68
2022/04/08 06:08:38;;;;;;;1.80;0.90;;;6.40;99.90;;;;;;5057589;28;20424;-69
2022/04/08 06:11:26;;;;;;;0.83;0.83;;;6.40;99.90;;;;;;5057104;28;20440;-68
2022/04/08 06:14:13;;;;;;;0.67;0.67;;;6.40;99.90;;;;;;5057289;28;20425;-68
2022/04/08 06:17:00;;;;;;;0.40;0.40;;;6.50;99.90;;;;;;5057109;28;20457;-68
2022/04/08 06:19:49;;;;;;;0.83;0.80;;;6.50;99.90;;;;;;5057476;28;20818;-68
2022/04/08 06:22:37;;;;;;;0.40;0.40;;;6.60;99.90;;;;;;5056891;28;20424;-68
2022/04/08 06:25:25;;;;;;;3.80;0.90;;;6.70;99.90;;;;;;5056548;28;20983;-68
2022/04/08 06:28:13;;;;;;;0.50;0.50;;;6.70;99.90;;;;;;5056321;28;20455;-68
2022/04/08 06:31:00;;;;;;;0.50;0.50;;;6.70;99.90;;;;;;5056069;28;20423;-69
2022/04/08 06:33:47;;;;;;;0.50;0.50;;;6.60;99.90;;;;;;5056676;28;20844;-68
2022/04/08 06:36:34;;;;;;;0.40;0.40;;;6.70;99.90;;;;;;5055451;28;20468;-69
2022/04/08 06:39:20;;;;;;;2.20;1.90;;;6.80;99.90;;;;;;5057857;28;20427;-68
2022/04/08 06:42:08;;;;;;;0.50;0.50;;;6.90;99.90;;;;;;5057847;28;20424;-69
2022/04/08 06:44:56;;;;;;;0.60;0.60;;;7.00;99.90;;;;;;5058220;28;20429;-68
2022/04/08 06:47:47;;;;;;;1.43;0.97;;;6.80;99.90;;;;;;5055895;28;20447;-68
2022/04/08 06:50:34;;;;;;;2.10;0.97;;;6.70;99.90;;;;;;5060758;28;20459;-70
2022/04/08 06:53:21;;;;;;;0.50;0.50;;;6.40;99.90;;;;;;5068253;28;20465;-70
2022/04/08 06:56:08;;;;;;;0.70;0.70;;;6.10;99.90;;;;;;5067189;28;20421;-69
2022/04/08 06:58:55;;;;;;;0.50;0.50;;;5.60;99.90;;;;;;5070641;28;20439;-68
2022/04/08 07:01:43;;;;;;;0.50;0.50;;;3.90;99.90;;;;;;5074273;28;20431;-68
2022/04/08 07:04:30;;;;;;;0.50;0.50;;;2.80;99.90;;;;;;5057719;28;20422;-68
2022/04/08 07:07:17;;;;;;;0.50;0.50;;;2.70;99.90;;;;;;5076068;28;20448;-70
2022/04/08 07:10:05;;;;;;;0.60;0.60;;;3.00;99.90;;;;;;5055661;28;20425;-73
2022/04/08 07:12:52;;;;;;;0.50;0.50;;;3.20;99.90;;;;;;5051165;28;20469;-70
2022/04/08 07:15:39;;;;;;;0.60;0.60;;;3.50;99.90;;;;;;5054668;28;20453;-70
2022/04/08 07:18:27;;;;;;;2.00;1.17;;;3.80;99.90;;;;;;5070405;28;20425;-70
2022/04/08 07:21:14;;;;;;;0.80;0.80;;;4.00;99.90;;;;;;5069469;28;20425;-71
2022/04/08 07:24:02;;;;;;;0.60;0.60;;;4.30;99.90;;;;;;5043602;28;20797;-69
2022/04/08 07:26:50;;;;;;;0.50;0.50;;;4.50;99.90;;;;;;5052917;28;20453;-68
2022/04/08 07:29:37;;;;;;;0.50;0.50;;;4.70;99.90;;;;;;5046327;28;20433;-69
2022/04/08 07:32:26;;;;;;;0.50;0.50;;;4.80;99.90;;;;;;5055263;28;20471;-69
2022/04/08 07:35:15;;;;;;;0.50;0.50;;;4.80;99.90;;;;;;5053293;28;20425;-70
2022/04/08 07:38:03;;;;;;;0.50;0.50;;;4.90;99.90;;;;;;5054250;28;20815;-70
2022/04/08 07:40:50;;;;;;;0.97;0.97;;;4.80;99.90;;;;;;5051768;28;20543;-70
2022/04/08 07:43:37;;;;;;;0.50;0.50;;;4.60;99.90;;;;;;5033819;28;20444;-68
2022/04/08 07:46:24;;;;;;;0.50;0.50;;;4.40;99.90;;;;;;5034332;28;20832;-68
2022/04/08 07:49:11;;;;;;;0.90;0.70;;;4.30;99.90;;;;;;5033972;28;20422;-69
2022/04/08 07:51:59;;;;;;;1.73;0.60;;;4.40;99.90;;;;;;5045877;28;20440;-66
2022/04/08 07:54:46;;;;;;;0.50;0.50;;;4.40;99.90;;;;;;5054442;28;20500;-67
2022/04/08 07:57:33;;;;;;;0.57;0.57;;;4.60;99.90;;;;;;5053488;28;20467;-67
2022/04/08 08:00:25;;;;;;;0.50;0.50;;;4.70;99.90;;;;;;5054419;28;20437;-67
2022/04/08 08:03:15;;;;;;;0.50;0.50;;;4.80;99.90;;;;;;5054150;28;20447;-66
2022/04/08 08:06:03;;;;;;;0.73;0.70;;;4.90;99.90;;;;;;5054761;28;20424;-67
2022/04/08 08:08:53;;;;;;;0.60;0.60;;;4.90;99.90;;;;;;5058960;28;20448;-66
2022/04/08 08:11:40;;;;;;;0.80;0.80;;;5.10;99.90;;;;;;5058867;28;20498;-67
2022/04/08 08:14:27;;;;;;;0.50;0.50;;;5.10;99.90;;;;;;5055340;28;20424;-66
2022/04/08 08:17:14;;;;;;;0.53;0.53;;;5.20;99.90;;;;;;5054734;28;20486;-66
2022/04/08 08:20:01;;;;;;;0.50;0.50;;;5.30;99.90;;;;;;5048752;28;20429;-67
2022/04/08 08:22:49;;;;;;;1.33;1.23;;;5.50;99.90;;;;;;5054458;28;20412;-67
2022/04/08 08:25:38;;;;;;;3.90;0.90;;;5.60;99.90;;;;;;5050075;28;20453;-67
2022/04/08 08:28:25;;;;;;;2.83;0.50;;;6.00;99.90;;;;;;5053650;28;20429;-68
2022/04/08 08:31:11;;;;;;;0.40;0.40;;;6.20;99.90;;;;;;5081930;28;20440;-69
2022/04/08 08:34:00;;;;;;;0.80;0.70;;;6.50;99.90;;;;;;5067451;28;20472;-68
2022/04/08 08:36:47;;;;;;;2.07;0.90;;;6.70;99.90;;;;;;5072826;28;20444;-69
2022/04/08 08:39:33;;;;;;;1.10;1.10;;;6.90;99.90;;;;;;5066327;28;20434;-68
2022/04/08 08:42:24;;;;;;;4.87;0.90;;;6.90;99.90;;;;;;5066185;28;20429;-68
2022/04/08 08:45:12;;;;;;;1.37;0.60;;;7.10;99.90;;;;;;5040219;28;20410;-68
2022/04/08 08:48:01;;;;;;;0.67;0.67;;;7.30;99.90;;;;;;5035534;28;20453;-68
2022/04/08 08:50:50;;;;;;;0.70;0.70;;;7.40;99.90;;;;;;5036334;28;20453;-68
2022/04/08 08:53:37;;;;;;;2.93;0.80;;;7.30;99.90;;;;;;5041587;28;20499;-68
2022/04/08 08:56:25;;;;;;;0.60;0.60;;;7.40;99.90;;;;;;5054338;28;20455;-69
2022/04/08 08:59:15;;;;;;;0.50;0.50;;;7.30;99.90;;;;;;5056208;28;20452;-68
2022/04/08 09:02:03;;;;;;;2.00;1.27;;;7.60;99.90;;;;;;5053735;28;20451;-69
2022/04/08 09:04:50;;;;;;;1.00;1.00;;;7.80;99.90;;;;;;5056962;28;20428;-68
2022/04/08 09:07:37;;;;;;;1.13;0.80;;;7.80;99.90;;;;;;5071742;28;20463;-67
2022/04/08 09:10:25;;;;;;;1.23;1.07;;;7.80;99.90;;;;;;5067167;28;20429;-68
2022/04/08 09:13:16;;;;;;;0.50;0.50;;;7.70;99.90;;;;;;5054339;28;20472;-68
2022/04/08 09:16:05;;;;;;;0.50;0.50;;;7.80;99.90;;;;;;5053033;28;21154;-69
2022/04/08 09:18:54;;;;;;;0.47;0.47;;;8.00;99.90;;;;;;5051599;28;20428;-68
2022/04/08 09:21:51;;;;;;;1.23;1.13;;;8.30;99.90;;;;;;5052636;28;20437;-69
2022/04/08 09:24:39;;;;;;;0.50;0.50;;;8.50;99.90;;;;;;5049069;28;20515;-69
2022/04/08 09:27:33;;;;;;;4.60;0.73;;;8.40;99.90;;;;;;5053914;28;20437;-68
2022/04/08 09:30:21;;;;;;;2.30;0.80;;;8.20;99.90;;;;;;5066083;28;20415;-70
2022/04/08 09:33:16;;;;;;;0.50;0.50;;;8.20;99.90;;;;;;5050360;28;20465;-69
2022/04/08 09:36:03;;;;;;;0.50;0.50;;;8.40;99.90;;;;;;5046502;28;20433;-69
2022/04/08 09:38:50;;;;;;;1.73;0.60;;;8.70;99.90;;;;;;5047123;28;20412;-70
2022/04/08 09:41:39;;;;;;;1.83;1.67;;;8.70;99.90;;;;;;5053965;28;20436;-70
2022/04/08 09:44:26;;;;;;;1.40;0.67;;;8.60;99.90;;;;;;5053325;28;20435;-68
2022/04/08 09:47:13;;;;;;;0.50;0.50;;;8.50;99.90;;;;;;5054517;28;20444;-69
2022/04/08 09:50:01;;;;;;;0.50;0.50;;;8.70;99.90;;;;;;5055054;28;20435;-68
2022/04/08 09:52:48;;;;;;;0.50;0.50;;;9.10;99.90;;;;;;5057722;28;20480;-69
2022/04/08 09:55:37;;;;;;;1.53;1.43;;;9.20;99.90;;;;;;5059456;28;20436;-69
2022/04/08 09:58:27;;;;;;;1.90;0.90;;;9.10;99.90;;;;;;5055940;28;20472;-69
2022/04/08 10:01:14;;;;;;;1.07;0.97;;;9.00;99.90;;;;;;5062349;28;20420;-69
2022/04/08 10:04:04;;;;;;;0.60;0.60;;;8.90;99.90;;;;;;5066151;28;20420;-68
2022/04/08 10:06:52;;;;;;;1.73;0.90;;;9.10;99.90;;;;;;5063217;28;20472;-69
2022/04/08 10:09:49;;;;;;;0.50;0.50;;;9.20;99.90;;;;;;5067515;28;20433;-71
2022/04/08 10:12:41;;;;;;;0.73;0.47;;;9.10;99.90;;;;;;5068592;28;20453;-69
2022/04/08 10:15:33;;;;;;;0.50;0.50;;;9.20;99.90;;;;;;5064659;28;20427;-69
2022/04/08 10:18:20;;;;;;;0.70;0.60;;;9.10;99.90;;;;;;5082037;28;20445;-68
2022/04/08 10:21:10;;;;;;;1.80;1.70;;;8.90;99.90;;;;;;5036971;28;20433;-69
2022/04/08 10:23:58;;;;;;;1.43;1.13;;;8.90;99.90;;;;;;5052640;28;20507;-69
2022/04/08 10:27:05;;;;;;;0.80;0.60;;;8.90;99.90;;;;;;5053219;28;20462;-69
2022/04/08 10:29:55;;;;;;;0.60;0.60;;;8.90;99.90;;;;;;5064424;28;20792;-70
2022/04/08 10:32:43;;;;;;;0.53;0.53;;;9.20;99.90;;;;;;5067540;28;21053;-72
2022/04/08 10:35:30;;;;;;;0.90;0.70;;;9.50;99.90;;;;;;5051477;28;20491;-70
2022/04/08 10:38:17;;;;;;;0.60;0.60;;;9.30;99.90;;;;;;5053874;28;20440;-70
2022/04/08 10:41:09;;;;;;;1.10;0.60;;;9.20;99.90;;;;;;5055889;28;20420;-68
2022/04/08 10:43:56;;;;;;;5.40;1.47;;;9.10;99.90;;;;;;5053015;28;20944;-68
2022/04/08 10:46:50;;;;;;;0.87;0.73;;;9.10;99.90;;;;;;5054031;28;20448;-69
2022/04/08 10:49:49;;;;;;;6.80;0.73;;;9.10;99.90;;;;;;5053412;28;20456;-69
2022/04/08 10:52:40;;;;;;;1.43;0.80;;;9.00;99.90;;;;;;5052967;28;20433;-70
2022/04/08 10:55:27;;;;;;;0.50;0.50;;;9.20;99.90;;;;;;5049306;28;20420;-68
2022/04/08 10:58:19;;;;;;;0.50;0.50;;;9.30;99.90;;;;;;5052111;28;21030;-70
2022/04/08 11:01:17;;;;;;;0.60;0.60;;;9.40;99.90;;;;;;5055931;28;20966;-69
2022/04/08 11:04:06;;;;;;;0.60;0.60;;;9.20;99.90;;;;;;5055042;28;20424;-70
2022/04/08 11:06:53;;;;;;;0.60;0.60;;;9.30;99.90;;;;;;5057658;28;20484;-71
2022/04/08 11:09:42;;;;;;;0.97;0.57;;;9.40;99.90;;;;;;5055047;28;20436;-69
2022/04/08 11:12:30;;;;;;;0.50;0.50;;;9.80;99.90;;;;;;5055476;28;20444;-69
2022/04/08 11:15:24;;;;;;;0.60;0.60;;;9.70;99.90;;;;;;5066631;28;20896;-71
2022/04/08 11:18:11;;;;;;;0.50;0.50;;;9.60;99.90;;;;;;5048998;28;20480;-70
2022/04/08 11:20:58;;;;;;;0.50;0.50;;;9.70;99.90;;;;;;5065802;28;20954;-71
2022/04/08 11:23:57;;;;;;;0.50;0.50;;;9.90;99.90;;;;;;5067098;28;20940;-71
2022/04/08 11:26:46;;;;;;;0.53;0.53;;;10.10;99.90;;;;;;5042147;28;20475;-71
2022/04/08 11:29:33;;;;;;;3.03;1.37;;;10.30;99.90;;;;;;5037427;28;20413;-70
2022/04/08 11:32:29;;;;;;;0.63;0.53;;;10.30;99.90;;;;;;5043644;28;20957;-71
2022/04/08 11:35:16;;;;;;;0.50;0.50;;;10.30;99.90;;;;;;5065037;28;20475;-71
2022/04/08 11:38:12;;;;;;;0.50;0.50;;;10.30;99.90;;;;;;5052293;28;20464;-70
2022/04/08 11:41:00;;;;;;;0.50;0.50;;;10.40;99.90;;;;;;5055142;28;20421;-72
2022/04/08 11:43:47;;;;;;;0.47;0.47;;;10.20;99.90;;;;;;5056579;28;20546;-69
2022/04/08 11:46:34;;;;;;;1.77;0.73;;;10.00;99.90;;;;;;5036353;28;20487;-71
2022/04/08 11:49:24;;;;;;;4.93;3.23;;;10.10;99.90;;;;;;5034622;28;20424;-71
2022/04/08 11:52:11;;;;;;;5.73;1.13;;;10.20;99.90;;;;;;5034391;28;20918;-71
2022/04/08 11:55:03;;;;;;;1.53;0.80;;;10.30;99.90;;;;;;5038350;28;20996;-70
2022/04/08 11:57:51;;;;;;;1.93;1.47;;;10.20;99.90;;;;;;5053260;28;20455;-70
2022/04/08 12:00:38;;;;;;;0.70;0.70;;;9.90;99.90;;;;;;5053809;28;20431;-70
2022/04/08 12:03:31;;;;;;;1.37;0.77;;;9.70;99.90;;;;;;5055739;28;20428;-70
2022/04/08 12:06:19;;;;;;;1.37;0.90;;;9.30;99.90;;;;;;5059619;28;20425;-71
2022/04/08 12:09:06;;;;;;;0.50;0.50;;;9.10;99.90;;;;;;5054692;28;20447;-71
2022/04/08 12:11:54;;;;;;;0.60;0.60;;;9.40;99.90;;;;;;5053321;28;20431;-70
2022/04/08 12:14:42;;;;;;;1.03;0.90;;;9.90;99.90;;;;;;5052896;28;20468;-72
2022/04/08 12:17:37;;;;;;;0.73;0.73;;;10.20;99.90;;;;;;5052775;28;20968;-71
2022/04/08 12:20:24;;;;;;;0.50;0.50;;;10.50;99.90;;;;;;5052446;28;20432;-72
2022/04/08 12:23:14;;;;;;;0.50;0.50;;;10.90;99.90;;;;;;5053202;28;20421;-72
2022/04/08 12:26:04;;;;;;;0.57;0.57;;;11.30;99.90;;;;;;5044909;28;20941;-70
2022/04/08 12:28:51;;;;;;;0.50;0.50;;;11.60;99.90;;;;;;5061315;28;20421;-70
2022/04/08 12:31:46;;;;;;;0.90;0.87;;;12.00;99.90;;;;;;5053447;28;20432;-71
2022/04/08 12:34:33;;;;;;;0.50;0.50;;;11.70;99.90;;;;;;5053613;28;20468;-72
2022/04/08 12:37:20;;;;;;;0.50;0.50;;;11.30;99.90;;;;;;5051469;28;20448;-71
2022/04/08 12:40:10;;;;;;;0.53;0.53;;;11.30;99.90;;;;;;5051883;28;20423;-71
2022/04/08 12:42:57;;;;;;;0.50;0.50;;;11.30;99.90;;;;;;5052654;28;20436;-71
2022/04/08 12:45:44;;;;;;;0.80;0.60;;;11.20;99.90;;;;;;5031945;28;21222;-70
2022/04/08 12:48:32;;;;;;;0.60;0.60;;;11.40;99.90;;;;;;5032380;28;20422;-70
2022/04/08 12:51:19;;;;;;;0.40;0.40;;;11.60;99.90;;;;;;5032963;28;20426;-68
2022/04/08 12:54:06;;;;;;;0.70;0.60;;;11.70;99.90;;;;;;5033496;28;20846;-70
2022/04/08 12:56:54;;;;;;;1.50;0.70;;;11.40;99.90;;;;;;5054260;28;20455;-71
2022/04/08 12:59:41;;;;;;;0.80;0.77;;;10.90;99.90;;;;;;5053966;28;20431;-71
2022/04/08 13:02:28;;;;;;;0.70;0.60;;;10.40;99.90;;;;;;5055743;28;20948;-72
2022/04/08 13:05:15;;;;;;;0.50;0.50;;;10.10;99.90;;;;;;5050982;28;20440;-69
2022/04/08 13:08:02;;;;;;;0.80;0.80;;;9.90;99.90;;;;;;5055504;28;20456;-69
2022/04/08 13:10:49;;;;;;;0.50;0.50;;;9.80;99.90;;;;;;5051951;28;20613;-71
2022/04/08 13:13:37;;;;;;;0.90;0.90;;;9.80;99.90;;;;;;5051279;28;20428;-69
2022/04/08 13:16:24;;;;;;;4.13;1.67;;;9.80;99.90;;;;;;5050059;28;20445;-72
2022/04/08 13:19:11;;;;;;;2.93;2.40;;;9.90;99.90;;;;;;5046017;28;20471;-72
2022/04/08 13:21:59;;;;;;;0.83;0.83;;;10.20;99.90;;;;;;5046401;28;20429;-73
2022/04/08 13:24:46;;;;;;;1.63;1.63;;;10.40;99.90;;;;;;5047732;28;20424;-69
2022/04/08 13:27:33;;;;;;;0.50;0.50;;;10.40;99.90;;;;;;5071250;28;20443;-72
2022/04/08 13:30:21;;;;;;;0.50;0.50;;;10.20;99.90;;;;;;5070864;28;20424;-70
2022/04/08 13:33:08;;;;;;;1.50;0.73;;;10.30;99.90;;;;;;5072997;28;20426;-69
2022/04/08 13:35:56;;;;;;;0.70;0.70;;;10.20;99.90;;;;;;5073603;28;21053;-70
2022/04/08 13:38:43;;;;;;;0.70;0.70;;;10.20;99.90;;;;;;5076271;28;20431;-71
2022/04/08 13:41:30;;;;;;;0.50;0.50;;;10.50;99.90;;;;;;5075610;28;20967;-70
2022/04/08 13:44:18;;;;;;;0.50;0.50;;;10.80;99.90;;;;;;5066484;28;20498;-72
2022/04/08 13:47:07;;;;;;;0.60;0.60;;;11.40;99.90;;;;;;5059619;28;20452;-70
2022/04/08 13:49:54;;;;;;;0.70;0.70;;;11.60;99.90;;;;;;5061159;28;20431;-69
2022/04/08 13:52:40;;;;;;;0.40;0.40;;;11.70;99.90;;;;;;5064100;28;20462;-69
2022/04/08 13:55:27;;;;;;;2.73;1.03;;;11.70;99.90;;;;;;5057295;28;20475;-68
2022/04/08 13:58:14;;;;;;;0.57;0.57;;;11.50;99.90;;;;;;5053579;28;20457;-70
2022/04/08 14:01:01;;;;;;;0.40;0.40;;;11.50;99.90;;;;;;5059345;28;20818;-69
2022/04/08 14:03:49;;;;;;;0.40;0.40;;;11.50;99.90;;;;;;5060852;28;20935;-69
2022/04/08 14:06:36;;;;;;;0.60;0.60;;;11.60;99.90;;;;;;5075025;28;20455;-69
2022/04/08 14:09:23;;;;;;;0.50;0.50;;;11.40;99.90;;;;;;5073358;28;20423;-69
2022/04/08 14:12:11;;;;;;;1.33;1.23;;;11.50;99.90;;;;;;5073068;28;20415;-69
2022/04/08 14:14:58;;;;;;;0.70;0.63;;;11.30;99.90;;;;;;5072513;28;20467;-70
2022/04/08 14:17:45;;;;;;;2.03;1.93;;;11.20;99.90;;;;;;5072544;28;20542;-68
2022/04/08 14:20:34;;;;;;;0.70;0.70;;;11.40;99.90;;;;;;5073589;28;21109;-69
2022/04/08 14:23:21;;;;;;;0.40;0.40;;;11.40;99.90;;;;;;5073716;28;20463;-70
2022/04/08 14:26:08;;;;;;;2.90;0.87;;;11.60;99.90;;;;;;5074616;28;20946;-69
2022/04/08 14:28:55;;;;;;;0.93;0.70;;;11.70;99.90;;;;;;5075654;28;20428;-69
2022/04/08 14:31:42;;;;;;;0.40;0.40;;;12.00;99.90;;;;;;5074331;28;20950;-70
2022/04/08 14:34:29;;;;;;;0.50;0.50;;;12.10;99.90;;;;;;5074628;28;20463;-69
2022/04/08 14:37:17;;;;;;;0.40;0.40;;;11.90;99.90;;;;;;5074479;28;20440;-69
2022/04/08 14:40:05;;;;;;;0.50;0.50;;;12.10;99.90;;;;;;5073783;28;20428;-70
2022/04/08 14:42:52;;;;;;;0.80;0.80;;;12.30;98.80;;;;;;5075073;28;20850;-69